sensor_id;sensor_type;location;lat;lon;timestamp;pressure;altitude;pressure_sealevel;temperature;humidity
33859;BME280;20156;47.486;12.074;2023-02-18T00:01:19;95263.50;;;5.20;100.00
33859;BME280;20156;47.486;12.074;2023-02-18T00:03:46;95279.25;;;4.94;100.00
33859;BME280;20156;47.486;12.074;2023-02-18T00:06:24;95244.63;;;4.88;100.00
33859;BME280;20156;47.486;12.074;2023-02-18T00:08:51;95214.28;;;4.98;100.00
33859;BME280;20156;47.486;12.074;2023-02-18T00:11:18;95210.75;;;4.99;100.00
33859;BME280;20156;47.486;12.074;2023-02-18T00:13:49;95202.34;;;5.05;100.00
33859;BME280;20156;47.486;12.074;2023-02-18T00:16:15;95195.63;;;4.96;100.00
33859;BME280;20156;47.486;12.074;2023-02-18T00:18:40;95219.34;;;4.36;100.00
33859;BME280;20156;47.486;12.074;2023-02-18T00:21:07;95165.28;;;4.75;100.00
33859;BME280;20156;47.486;12.074;2023-02-18T00:23:32;95147.88;;;4.77;100.00
33859;BME280;20156;47.486;12.074;2023-02-18T00:26:06;95148.09;;;4.68;100.00
33859;BME280;20156;47.486;12.074;2023-02-18T00:28:31;95174.75;;;4.36;100.00
33859;BME280;20156;47.486;12.074;2023-02-18T00:30:57;95174.75;;;4.36;100.00
33859;BME280;20156;47.486;12.074;2023-02-18T00:33:23;95145.91;;;4.57;100.00
33859;BME280;20156;47.486;12.074;2023-02-18T00:35:48;95121.22;;;4.62;100.00
33859;BME280;20156;47.486;12.074;2023-02-18T00:38:14;95109.97;;;4.63;100.00
33859;BME280;20156;47.486;12.074;2023-02-18T00:40:40;95121.00;;;4.41;100.00
33859;BME280;20156;47.486;12.074;2023-02-18T00:43:06;95108.72;;;4.51;100.00
33859;BME280;20156;47.486;12.074;2023-02-18T00:45:32;95107.44;;;4.55;100.00
33859;BME280;20156;47.486;12.074;2023-02-18T00:47:57;95112.91;;;4.52;100.00
33859;BME280;20156;47.486;12.074;2023-02-18T00:50:23;95156.03;;;4.03;100.00
33859;BME280;20156;47.486;12.074;2023-02-18T00:52:48;95142.88;;;3.89;100.00
33859;BME280;20156;47.486;12.074;2023-02-18T00:55:14;95124.38;;;3.86;100.00
33859;BME280;20156;47.486;12.074;2023-02-18T00:57:39;95109.25;;;3.99;100.00
33859;BME280;20156;47.486;12.074;2023-02-18T01:00:06;95084.47;;;4.06;100.00
33859;BME280;20156;47.486;12.074;2023-02-18T01:02:31;95031.34;;;4.13;100.00
33859;BME280;20156;47.486;12.074;2023-02-18T01:04:57;95018.75;;;4.18;100.00
33859;BME280;20156;47.486;12.074;2023-02-18T01:07:22;94987.03;;;4.26;100.00
33859;BME280;20156;47.486;12.074;2023-02-18T01:09:48;94993.44;;;4.07;100.00
33859;BME280;20156;47.486;12.074;2023-02-18T01:12:14;94999.78;;;3.88;100.00
33859;BME280;20156;47.486;12.074;2023-02-18T01:14:40;94969.50;;;3.99;100.00
33859;BME280;20156;47.486;12.074;2023-02-18T01:17:05;94933.38;;;4.15;100.00
33859;BME280;20156;47.486;12.074;2023-02-18T01:19:30;94923.38;;;4.20;100.00
33859;BME280;20156;47.486;12.074;2023-02-18T01:21:56;94929.81;;;4.16;100.00
33859;BME280;20156;47.486;12.074;2023-02-18T01:24:22;94932.00;;;4.04;100.00
33859;BME280;20156;47.486;12.074;2023-02-18T01:26:47;94934.66;;;3.88;100.00
33859;BME280;20156;47.486;12.074;2023-02-18T01:29:12;94940.13;;;3.85;100.00
33859;BME280;20156;47.486;12.074;2023-02-18T01:31:38;94919.88;;;3.90;100.00
33859;BME280;20156;47.486;12.074;2023-02-18T01:34:03;94904.50;;;4.05;100.00
33859;BME280;20156;47.486;12.074;2023-02-18T01:36:29;94931.22;;;3.65;100.00
33859;BME280;20156;47.486;12.074;2023-02-18T01:38:54;94924.72;;;3.46;100.00
33859;BME280;20156;47.486;12.074;2023-02-18T01:41:20;94901.69;;;3.60;100.00
33859;BME280;20156;47.486;12.074;2023-02-18T01:43:45;94874.09;;;3.77;100.00
33859;BME280;20156;47.486;12.074;2023-02-18T01:46:19;94846.72;;;3.84;100.00
33859;BME280;20156;47.486;12.074;2023-02-18T01:48:56;94869.66;;;3.40;100.00
33859;BME280;20156;47.486;12.074;2023-02-18T01:51:26;94869.19;;;3.37;100.00
33859;BME280;20156;47.486;12.074;2023-02-18T01:56:52;94825.78;;;3.42;100.00
33859;BME280;20156;47.486;12.074;2023-02-18T01:59:38;94799.53;;;3.54;100.00
33859;BME280;20156;47.486;12.074;2023-02-18T02:02:06;94736.38;;;3.75;100.00
33859;BME280;20156;47.486;12.074;2023-02-18T02:04:32;94713.63;;;3.63;100.00
33859;BME280;20156;47.486;12.074;2023-02-18T02:06:58;94773.56;;;3.10;100.00
33859;BME280;20156;47.486;12.074;2023-02-18T02:09:26;94782.06;;;3.11;100.00
33859;BME280;20156;47.486;12.074;2023-02-18T02:36:51;94585.94;;;3.41;100.00
33859;BME280;20156;47.486;12.074;2023-02-18T02:39:35;94621.13;;;2.95;100.00
33859;BME280;20156;47.486;12.074;2023-02-18T02:42:18;94649.06;;;2.67;100.00
33859;BME280;20156;47.486;12.074;2023-02-18T02:45:01;94607.03;;;2.91;100.00
33859;BME280;20156;47.486;12.074;2023-02-18T02:47:48;94586.78;;;2.96;100.00
33859;BME280;20156;47.486;12.074;2023-02-18T02:50:36;94581.97;;;2.93;100.00
33859;BME280;20156;47.486;12.074;2023-02-18T02:53:18;94574.06;;;3.03;100.00
33859;BME280;20156;47.486;12.074;2023-02-18T02:55:45;94557.75;;;3.10;100.00
33859;BME280;20156;47.486;12.074;2023-02-18T02:58:14;94546.78;;;3.16;100.00
33859;BME280;20156;47.486;12.074;2023-02-18T03:10:07;94594.88;;;2.62;100.00
33859;BME280;20156;47.486;12.074;2023-02-18T03:17:56;94481.81;;;2.93;100.00
33859;BME280;20156;47.486;12.074;2023-02-18T03:20:30;94475.50;;;2.81;100.00
33859;BME280;20156;47.486;12.074;2023-02-18T03:22:59;94495.56;;;2.62;100.00
33859;BME280;20156;47.486;12.074;2023-02-18T03:25:25;94497.66;;;2.59;100.00
33859;BME280;20156;47.486;12.074;2023-02-18T03:27:55;94510.69;;;2.57;100.00
33859;BME280;20156;47.486;12.074;2023-02-18T03:30:26;94522.72;;;2.57;100.00
33859;BME280;20156;47.486;12.074;2023-02-18T03:32:57;94510.41;;;2.52;100.00
33859;BME280;20156;47.486;12.074;2023-02-18T03:35:23;94521.78;;;2.27;100.00
33859;BME280;20156;47.486;12.074;2023-02-18T03:37:54;94523.88;;;2.23;100.00
33859;BME280;20156;47.486;12.074;2023-02-18T03:40:29;94478.84;;;2.44;100.00
33859;BME280;20156;47.486;12.074;2023-02-18T03:42:56;94497.06;;;2.03;100.00
33859;BME280;20156;47.486;12.074;2023-02-18T03:45:23;94504.16;;;1.93;100.00
33859;BME280;20156;47.486;12.074;2023-02-18T03:47:48;94446.13;;;2.23;100.00
33859;BME280;20156;47.486;12.074;2023-02-18T03:50:14;94421.56;;;2.28;100.00
33859;BME280;20156;47.486;12.074;2023-02-18T03:52:39;94378.25;;;2.48;100.00
33859;BME280;20156;47.486;12.074;2023-02-18T03:55:05;94364.16;;;2.44;100.00
33859;BME280;20156;47.486;12.074;2023-02-18T03:57:31;94367.63;;;2.36;100.00
33859;BME280;20156;47.486;12.074;2023-02-18T03:59:57;94390.34;;;2.02;100.00
33859;BME280;20156;47.486;12.074;2023-02-18T04:02:22;94416.09;;;1.86;100.00
33859;BME280;20156;47.486;12.074;2023-02-18T04:04:47;94401.00;;;1.91;100.00
33859;BME280;20156;47.486;12.074;2023-02-18T04:07:13;94371.78;;;2.15;100.00
33859;BME280;20156;47.486;12.074;2023-02-18T04:09:38;94354.00;;;2.13;100.00
33859;BME280;20156;47.486;12.074;2023-02-18T04:12:04;94346.94;;;2.15;100.00
33859;BME280;20156;47.486;12.074;2023-02-18T04:14:30;94341.75;;;2.00;100.00
33859;BME280;20156;47.486;12.074;2023-02-18T04:16:55;94329.13;;;1.99;100.00
33859;BME280;20156;47.486;12.074;2023-02-18T04:19:20;94300.28;;;2.20;100.00
33859;BME280;20156;47.486;12.074;2023-02-18T04:21:46;94276.38;;;2.19;100.00
33859;BME280;20156;47.486;12.074;2023-02-18T04:24:11;94262.22;;;2.23;100.00
33859;BME280;20156;47.486;12.074;2023-02-18T04:26:37;94241.44;;;2.33;100.00
33859;BME280;20156;47.486;12.074;2023-02-18T04:29:02;94261.94;;;2.03;100.00
33859;BME280;20156;47.486;12.074;2023-02-18T04:31:28;94287.16;;;1.77;100.00
33859;BME280;20156;47.486;12.074;2023-02-18T04:33:53;94270.91;;;1.85;100.00
33859;BME280;20156;47.486;12.074;2023-02-18T04:36:18;94260.91;;;1.75;100.00
33859;BME280;20156;47.486;12.074;2023-02-18T04:38:44;94210.91;;;1.94;100.00
33859;BME280;20156;47.486;12.074;2023-02-18T04:41:10;94205.88;;;2.00;100.00
33859;BME280;20156;47.486;12.074;2023-02-18T04:43:37;94194.81;;;2.00;100.00
33859;BME280;20156;47.486;12.074;2023-02-18T04:46:02;94170.59;;;2.17;100.00
33859;BME280;20156;47.486;12.074;2023-02-18T04:48:28;94223.16;;;1.69;100.00
33859;BME280;20156;47.486;12.074;2023-02-18T04:50:56;94228.34;;;1.61;100.00
33859;BME280;20156;47.486;12.074;2023-02-18T04:53:22;94232.59;;;1.54;100.00
33859;BME280;20156;47.486;12.074;2023-02-18T04:55:51;94206.13;;;1.76;100.00
33859;BME280;20156;47.486;12.074;2023-02-18T04:58:18;94179.94;;;1.80;100.00
33859;BME280;20156;47.486;12.074;2023-02-18T05:00:43;94168.53;;;1.83;100.00
33859;BME280;20156;47.486;12.074;2023-02-18T05:03:09;94150.34;;;1.78;100.00
33859;BME280;20156;47.486;12.074;2023-02-18T05:05:34;94104.56;;;2.04;100.00
33859;BME280;20156;47.486;12.074;2023-02-18T05:08:00;94129.75;;;1.71;100.00
33859;BME280;20156;47.486;12.074;2023-02-18T05:10:26;94122.13;;;1.63;100.00
33859;BME280;20156;47.486;12.074;2023-02-18T05:12:51;94083.88;;;1.76;100.00
33859;BME280;20156;47.486;12.074;2023-02-18T05:15:17;94064.59;;;1.80;100.00
33859;BME280;20156;47.486;12.074;2023-02-18T05:17:42;94037.47;;;1.86;100.00
33859;BME280;20156;47.486;12.074;2023-02-18T05:20:08;94033.94;;;1.87;100.00
33859;BME280;20156;47.486;12.074;2023-02-18T05:22:34;94040.31;;;1.76;100.00
33859;BME280;20156;47.486;12.074;2023-02-18T05:24:59;94110.50;;;1.23;100.00
33859;BME280;20156;47.486;12.074;2023-02-18T05:27:25;94141.09;;;1.02;100.00
33859;BME280;20156;47.486;12.074;2023-02-18T05:29:50;94105.47;;;1.30;100.00
33859;BME280;20156;47.486;12.074;2023-02-18T05:32:15;94073.00;;;1.45;100.00
33859;BME280;20156;47.486;12.074;2023-02-18T05:34:41;94053.56;;;1.50;100.00
33859;BME280;20156;47.486;12.074;2023-02-18T05:37:06;94068.41;;;1.40;100.00
33859;BME280;20156;47.486;12.074;2023-02-18T05:39:32;94051.78;;;1.51;100.00
33859;BME280;20156;47.486;12.074;2023-02-18T05:41:57;94028.84;;;1.58;100.00
33859;BME280;20156;47.486;12.074;2023-02-18T05:44:23;94000.22;;;1.69;100.00
33859;BME280;20156;47.486;12.074;2023-02-18T05:46:58;93997.66;;;1.69;100.00
33859;BME280;20156;47.486;12.074;2023-02-18T05:49:24;94005.06;;;1.64;100.00
33859;BME280;20156;47.486;12.074;2023-02-18T05:51:49;93993.81;;;1.65;100.00
33859;BME280;20156;47.486;12.074;2023-02-18T05:54:15;94040.13;;;1.34;100.00
33859;BME280;20156;47.486;12.074;2023-02-18T05:56:40;94057.72;;;1.37;100.00
33859;BME280;20156;47.486;12.074;2023-02-18T05:59:06;94039.69;;;1.45;100.00
33859;BME280;20156;47.486;12.074;2023-02-18T06:01:31;94044.81;;;1.45;100.00
33859;BME280;20156;47.486;12.074;2023-02-18T06:03:57;94104.28;;;1.03;100.00
33859;BME280;20156;47.486;12.074;2023-02-18T06:06:22;94111.38;;;1.15;100.00
33859;BME280;20156;47.486;12.074;2023-02-18T06:08:48;94134.13;;;1.10;100.00
33859;BME280;20156;47.486;12.074;2023-02-18T06:11:13;94157.63;;;1.14;100.00
33859;BME280;20156;47.486;12.074;2023-02-18T06:13:39;94162.69;;;1.22;100.00
33859;BME280;20156;47.486;12.074;2023-02-18T06:16:04;94145.13;;;1.34;100.00
33859;BME280;20156;47.486;12.074;2023-02-18T06:18:30;94147.78;;;1.26;100.00
33859;BME280;20156;47.486;12.074;2023-02-18T06:20:55;94145.03;;;1.27;100.00
33859;BME280;20156;47.486;12.074;2023-02-18T06:23:21;94122.03;;;1.42;100.00
33859;BME280;20156;47.486;12.074;2023-02-18T06:25:49;94124.03;;;1.32;100.00
33859;BME280;20156;47.486;12.074;2023-02-18T06:28:15;94165.50;;;0.89;100.00
33859;BME280;20156;47.486;12.074;2023-02-18T06:30:41;94153.94;;;1.16;100.00
33859;BME280;20156;47.486;12.074;2023-02-18T06:33:07;94126.78;;;1.30;100.00
33859;BME280;20156;47.486;12.074;2023-02-18T06:35:32;94148.00;;;1.16;100.00
33859;BME280;20156;47.486;12.074;2023-02-18T06:37:58;94118.22;;;1.38;100.00
33859;BME280;20156;47.486;12.074;2023-02-18T06:40:23;94165.16;;;0.93;100.00
33859;BME280;20156;47.486;12.074;2023-02-18T06:42:49;94152.94;;;1.03;100.00
33859;BME280;20156;47.486;12.074;2023-02-18T06:45:14;94148.72;;;1.10;100.00
33859;BME280;20156;47.486;12.074;2023-02-18T06:47:40;94136.34;;;1.13;100.00
33859;BME280;20156;47.486;12.074;2023-02-18T06:50:06;94130.88;;;1.16;100.00
33859;BME280;20156;47.486;12.074;2023-02-18T06:52:31;94095.06;;;1.31;100.00
33859;BME280;20156;47.486;12.074;2023-02-18T06:55:03;94041.81;;;1.56;100.00
33859;BME280;20156;47.486;12.074;2023-02-18T06:57:29;94051.97;;;1.20;100.00
33859;BME280;20156;47.486;12.074;2023-02-18T06:59:54;94049.13;;;1.15;100.00
33859;BME280;20156;47.486;12.074;2023-02-18T07:02:20;93996.94;;;1.45;100.00
33859;BME280;20156;47.486;12.074;2023-02-18T07:04:45;93959.81;;;1.71;100.00
33859;BME280;20156;47.486;12.074;2023-02-18T07:07:10;93933.31;;;1.64;100.00
33859;BME280;20156;47.486;12.074;2023-02-18T07:09:36;93912.53;;;1.73;100.00
33859;BME280;20156;47.486;12.074;2023-02-18T07:12:01;93884.81;;;1.84;100.00
33859;BME280;20156;47.486;12.074;2023-02-18T07:14:27;93832.97;;;2.09;100.00
33859;BME280;20156;47.486;12.074;2023-02-18T07:16:53;93822.91;;;2.08;100.00
33859;BME280;20156;47.486;12.074;2023-02-18T07:19:18;93829.50;;;1.96;100.00
33859;BME280;20156;47.486;12.074;2023-02-18T07:21:44;93872.50;;;1.72;100.00
33859;BME280;20156;47.486;12.074;2023-02-18T07:24:09;93898.03;;;1.66;100.00
33859;BME280;20156;47.486;12.074;2023-02-18T07:26:35;93923.31;;;1.69;100.00
33859;BME280;20156;47.486;12.074;2023-02-18T07:29:00;93898.84;;;2.09;100.00
33859;BME280;20156;47.486;12.074;2023-02-18T07:31:25;93876.41;;;2.39;100.00
33859;BME280;20156;47.486;12.074;2023-02-18T07:33:51;93907.66;;;2.21;100.00
33859;BME280;20156;47.486;12.074;2023-02-18T07:36:17;93983.81;;;1.85;100.00
33859;BME280;20156;47.486;12.074;2023-02-18T07:38:42;94003.84;;;1.96;100.00
33859;BME280;20156;47.486;12.074;2023-02-18T07:41:20;93989.59;;;2.29;100.00
33859;BME280;20156;47.486;12.074;2023-02-18T07:43:46;93961.66;;;2.62;100.00
33859;BME280;20156;47.486;12.074;2023-02-18T07:46:11;93994.00;;;2.57;100.00
33859;BME280;20156;47.486;12.074;2023-02-18T07:48:37;94008.28;;;2.66;100.00
33859;BME280;20156;47.486;12.074;2023-02-18T07:51:07;94005.59;;;2.74;100.00
33859;BME280;20156;47.486;12.074;2023-02-18T07:53:33;94062.97;;;2.66;100.00
33859;BME280;20156;47.486;12.074;2023-02-18T07:56:00;94058.19;;;2.85;100.00
33859;BME280;20156;47.486;12.074;2023-02-18T07:58:28;94073.31;;;2.94;100.00
33859;BME280;20156;47.486;12.074;2023-02-18T08:00:54;94118.56;;;2.74;100.00
33859;BME280;20156;47.486;12.074;2023-02-18T08:03:28;94133.59;;;2.77;100.00
33859;BME280;20156;47.486;12.074;2023-02-18T08:05:54;94152.97;;;2.80;100.00
33859;BME280;20156;47.486;12.074;2023-02-18T08:08:22;94173.69;;;2.78;100.00
33859;BME280;20156;47.486;12.074;2023-02-18T08:10:49;94127.66;;;3.19;100.00
33859;BME280;20156;47.486;12.074;2023-02-18T08:13:15;94134.00;;;3.02;100.00
33859;BME280;20156;47.486;12.074;2023-02-18T08:15:41;94151.38;;;3.00;100.00
33859;BME280;20156;47.486;12.074;2023-02-18T08:18:08;94164.13;;;3.08;100.00
33859;BME280;20156;47.486;12.074;2023-02-18T08:20:36;94177.19;;;3.13;100.00
33859;BME280;20156;47.486;12.074;2023-02-18T08:23:03;94183.03;;;3.22;100.00
33859;BME280;20156;47.486;12.074;2023-02-18T08:25:29;94207.31;;;3.19;100.00
33859;BME280;20156;47.486;12.074;2023-02-18T08:27:55;94221.56;;;3.22;100.00
33859;BME280;20156;47.486;12.074;2023-02-18T08:30:20;94261.31;;;3.05;100.00
33859;BME280;20156;47.486;12.074;2023-02-18T08:32:45;94279.16;;;3.13;100.00
33859;BME280;20156;47.486;12.074;2023-02-18T08:35:11;94273.47;;;3.17;100.00
33859;BME280;20156;47.486;12.074;2023-02-18T08:37:36;94283.56;;;3.19;100.00
33859;BME280;20156;47.486;12.074;2023-02-18T08:40:05;94306.25;;;3.15;100.00
33859;BME280;20156;47.486;12.074;2023-02-18T08:42:31;94284.03;;;3.44;100.00
33859;BME280;20156;47.486;12.074;2023-02-18T08:44:56;94280.31;;;3.46;100.00
33859;BME280;20156;47.486;12.074;2023-02-18T08:47:22;94290.03;;;3.51;100.00
33859;BME280;20156;47.486;12.074;2023-02-18T08:49:47;94280.00;;;3.77;100.00
33859;BME280;20156;47.486;12.074;2023-02-18T08:52:13;94282.75;;;3.97;100.00
33859;BME280;20156;47.486;12.074;2023-02-18T08:54:38;94291.59;;;4.16;100.00
33859;BME280;20156;47.486;12.074;2023-02-18T08:57:03;94313.56;;;4.40;100.00
33859;BME280;20156;47.486;12.074;2023-02-18T08:59:29;94302.84;;;5.05;100.00
33859;BME280;20156;47.486;12.074;2023-02-18T09:01:54;94367.69;;;5.09;100.00
33859;BME280;20156;47.486;12.074;2023-02-18T09:04:20;94428.53;;;5.10;100.00
33859;BME280;20156;47.486;12.074;2023-02-18T09:06:46;94468.50;;;5.27;100.00
33859;BME280;20156;47.486;12.074;2023-02-18T09:09:12;94496.28;;;5.60;100.00
33859;BME280;20156;47.486;12.074;2023-02-18T09:11:38;94536.19;;;5.92;100.00
33859;BME280;20156;47.486;12.074;2023-02-18T09:14:03;94556.72;;;6.13;100.00
33859;BME280;20156;47.486;12.074;2023-02-18T09:16:29;94594.19;;;6.44;100.00
33859;BME280;20156;47.486;12.074;2023-02-18T09:18:55;94654.78;;;6.41;100.00
33859;BME280;20156;47.486;12.074;2023-02-18T09:21:21;94721.53;;;6.72;100.00
33859;BME280;20156;47.486;12.074;2023-02-18T09:23:48;94775.22;;;7.11;100.00
33859;BME280;20156;47.486;12.074;2023-02-18T09:26:15;94855.34;;;7.39;100.00
33859;BME280;20156;47.486;12.074;2023-02-18T09:28:41;94898.09;;;7.76;100.00
33859;BME280;20156;47.486;12.074;2023-02-18T09:31:10;94944.78;;;7.96;100.00
33859;BME280;20156;47.486;12.074;2023-02-18T09:33:42;94977.53;;;8.17;100.00
33859;BME280;20156;47.486;12.074;2023-02-18T09:36:07;94979.97;;;8.32;100.00
33859;BME280;20156;47.486;12.074;2023-02-18T09:38:33;94991.00;;;8.54;100.00
33859;BME280;20156;47.486;12.074;2023-02-18T09:41:00;95045.50;;;8.60;100.00
33859;BME280;20156;47.486;12.074;2023-02-18T09:43:30;95069.69;;;8.81;100.00
33859;BME280;20156;47.486;12.074;2023-02-18T09:45:58;95109.34;;;8.33;100.00
33859;BME280;20156;47.486;12.074;2023-02-18T09:48:28;95101.75;;;8.73;100.00
33859;BME280;20156;47.486;12.074;2023-02-18T09:50:55;95127.25;;;9.11;100.00
33859;BME280;20156;47.486;12.074;2023-02-18T09:53:22;95177.19;;;9.26;100.00
33859;BME280;20156;47.486;12.074;2023-02-18T09:55:50;95221.13;;;9.27;100.00
33859;BME280;20156;47.486;12.074;2023-02-18T09:58:29;95228.50;;;9.24;100.00
33859;BME280;20156;47.486;12.074;2023-02-18T10:04:00;95243.28;;;9.30;100.00
33859;BME280;20156;47.486;12.074;2023-02-18T10:06:32;95260.38;;;9.65;100.00
33859;BME280;20156;47.486;12.074;2023-02-18T10:09:04;95285.00;;;9.89;100.00
33859;BME280;20156;47.486;12.074;2023-02-18T10:11:41;95331.88;;;9.61;100.00
33859;BME280;20156;47.486;12.074;2023-02-18T10:14:12;95369.19;;;9.47;100.00
33859;BME280;20156;47.486;12.074;2023-02-18T10:16:38;95370.66;;;9.28;100.00
33859;BME280;20156;47.486;12.074;2023-02-18T10:19:19;95369.06;;;9.27;100.00
33859;BME280;20156;47.486;12.074;2023-02-18T10:21:46;95348.31;;;9.34;100.00
33859;BME280;20156;47.486;12.074;2023-02-18T10:26:58;95334.44;;;10.09;100.00
33859;BME280;20156;47.486;12.074;2023-02-18T10:29:25;95363.03;;;10.16;100.00
33859;BME280;20156;47.486;12.074;2023-02-18T10:32:06;95399.09;;;10.32;100.00
33859;BME280;20156;47.486;12.074;2023-02-18T10:34:42;95461.56;;;10.45;100.00
33859;BME280;20156;47.486;12.074;2023-02-18T10:45:46;95542.00;;;11.34;100.00
33859;BME280;20156;47.486;12.074;2023-02-18T10:50:39;95562.84;;;11.48;100.00
33859;BME280;20156;47.486;12.074;2023-02-18T10:53:18;95568.03;;;11.74;100.00
33859;BME280;20156;47.486;12.074;2023-02-18T10:55:47;95586.34;;;11.81;100.00
33859;BME280;20156;47.486;12.074;2023-02-18T10:58:34;95589.94;;;11.93;100.00
33859;BME280;20156;47.486;12.074;2023-02-18T11:01:03;95604.75;;;11.92;100.00
33859;BME280;20156;47.486;12.074;2023-02-18T11:06:20;95599.97;;;11.83;100.00
33859;BME280;20156;47.486;12.074;2023-02-18T11:08:46;95611.81;;;11.79;100.00
33859;BME280;20156;47.486;12.074;2023-02-18T11:11:17;95606.16;;;11.88;100.00
33859;BME280;20156;47.486;12.074;2023-02-18T11:13:52;95600.38;;;11.93;100.00
33859;BME280;20156;47.486;12.074;2023-02-18T11:16:21;95600.13;;;12.08;100.00
33859;BME280;20156;47.486;12.074;2023-02-18T11:18:47;95598.91;;;12.23;100.00
33859;BME280;20156;47.486;12.074;2023-02-18T11:21:20;95597.09;;;12.30;100.00
33859;BME280;20156;47.486;12.074;2023-02-18T11:23:52;95594.84;;;12.41;100.00
33859;BME280;20156;47.486;12.074;2023-02-18T11:26:29;95588.31;;;12.83;100.00
33859;BME280;20156;47.486;12.074;2023-02-18T11:29:04;95602.19;;;12.70;100.00
33859;BME280;20156;47.486;12.074;2023-02-18T11:31:42;95613.22;;;12.79;100.00
33859;BME280;20156;47.486;12.074;2023-02-18T11:34:16;95611.59;;;12.84;100.00
33859;BME280;20156;47.486;12.074;2023-02-18T11:36:43;95613.22;;;13.30;100.00
33859;BME280;20156;47.486;12.074;2023-02-18T11:39:24;95607.09;;;13.43;100.00
33859;BME280;20156;47.486;12.074;2023-02-18T11:42:05;95602.72;;;13.37;100.00
33859;BME280;20156;47.486;12.074;2023-02-18T11:44:36;95611.72;;;13.72;100.00
33859;BME280;20156;47.486;12.074;2023-02-18T11:49:28;95604.03;;;13.52;100.00
33859;BME280;20156;47.486;12.074;2023-02-18T11:51:55;95599.88;;;13.70;100.00
33859;BME280;20156;47.486;12.074;2023-02-18T11:54:30;95604.22;;;13.82;100.00
33859;BME280;20156;47.486;12.074;2023-02-18T11:57:01;95600.63;;;13.77;100.00
33859;BME280;20156;47.486;12.074;2023-02-18T11:59:29;95591.03;;;13.71;100.00
33859;BME280;20156;47.486;12.074;2023-02-18T12:02:05;95600.78;;;13.82;100.00
33859;BME280;20156;47.486;12.074;2023-02-18T12:04:42;95588.34;;;14.02;100.00
33859;BME280;20156;47.486;12.074;2023-02-18T12:07:20;95578.72;;;14.39;100.00
33859;BME280;20156;47.486;12.074;2023-02-18T12:09:51;95583.06;;;14.27;100.00
33859;BME280;20156;47.486;12.074;2023-02-18T12:12:31;95578.69;;;14.03;100.00
33859;BME280;20156;47.486;12.074;2023-02-18T12:14:58;95565.16;;;14.06;100.00
33859;BME280;20156;47.486;12.074;2023-02-18T12:20:18;95565.16;;;14.67;100.00
33859;BME280;20156;47.486;12.074;2023-02-18T12:28:40;95564.16;;;14.25;100.00
33859;BME280;20156;47.486;12.074;2023-02-18T12:36:57;95552.31;;;14.41;100.00
33859;BME280;20156;47.486;12.074;2023-02-18T12:50:54;95535.69;;;14.17;100.00
33859;BME280;20156;47.486;12.074;2023-02-18T12:53:34;95532.97;;;14.42;100.00
33859;BME280;20156;47.486;12.074;2023-02-18T12:59:37;95532.25;;;14.17;100.00
33859;BME280;20156;47.486;12.074;2023-02-18T13:11:11;95525.66;;;13.71;100.00
33859;BME280;20156;47.486;12.074;2023-02-18T13:13:47;95527.03;;;14.17;100.00
33859;BME280;20156;47.486;12.074;2023-02-18T13:16:17;95523.03;;;14.32;100.00
33859;BME280;20156;47.486;12.074;2023-02-18T13:19:23;95500.44;;;14.20;100.00
33859;BME280;20156;47.486;12.074;2023-02-18T13:21:58;95510.31;;;14.18;100.00
33859;BME280;20156;47.486;12.074;2023-02-18T13:24:42;95504.41;;;14.40;100.00
33859;BME280;20156;47.486;12.074;2023-02-18T13:30:42;95479.25;;;14.58;100.00
33859;BME280;20156;47.486;12.074;2023-02-18T13:39:08;95486.09;;;15.42;100.00
33859;BME280;20156;47.486;12.074;2023-02-18T13:41:41;95470.31;;;15.84;100.00
33859;BME280;20156;47.486;12.074;2023-02-18T13:46:57;95459.09;;;15.42;100.00
33859;BME280;20156;47.486;12.074;2023-02-18T13:49:25;95458.06;;;15.43;100.00
33859;BME280;20156;47.486;12.074;2023-02-18T13:51:54;95431.63;;;15.56;100.00
33859;BME280;20156;47.486;12.074;2023-02-18T13:56:59;95306.03;;;14.96;100.00
33859;BME280;20156;47.486;12.074;2023-02-18T13:59:40;95243.19;;;15.36;100.00
33859;BME280;20156;47.486;12.074;2023-02-18T14:09:50;95247.66;;;16.04;100.00
33859;BME280;20156;47.486;12.074;2023-02-18T14:12:59;95245.06;;;15.92;100.00
33859;BME280;20156;47.486;12.074;2023-02-18T14:19:24;95246.50;;;15.83;100.00
33859;BME280;20156;47.486;12.074;2023-02-18T14:28:40;95295.00;;;15.57;100.00
33859;BME280;20156;47.486;12.074;2023-02-18T14:33:41;95292.81;;;14.91;100.00
33859;BME280;20156;47.486;12.074;2023-02-18T14:36:23;95287.31;;;15.27;100.00
33859;BME280;20156;47.486;12.074;2023-02-18T14:39:01;95274.66;;;15.24;100.00
33859;BME280;20156;47.486;12.074;2023-02-18T14:41:42;95284.13;;;15.25;100.00
33859;BME280;20156;47.486;12.074;2023-02-18T14:49:43;95267.28;;;15.10;100.00
33859;BME280;20156;47.486;12.074;2023-02-18T14:54:48;95307.50;;;14.80;100.00
33859;BME280;20156;47.486;12.074;2023-02-18T14:57:16;95307.06;;;14.95;100.00
33859;BME280;20156;47.486;12.074;2023-02-18T14:59:44;95284.16;;;14.67;100.00
33859;BME280;20156;47.486;12.074;2023-02-18T15:02:28;95291.34;;;14.41;100.00
33859;BME280;20156;47.486;12.074;2023-02-18T15:05:24;95303.66;;;14.41;100.00
33859;BME280;20156;47.486;12.074;2023-02-18T15:08:01;95311.00;;;14.21;100.00
33859;BME280;20156;47.486;12.074;2023-02-18T15:10:55;95314.28;;;14.16;100.00
33859;BME280;20156;47.486;12.074;2023-02-18T15:13:46;95316.72;;;14.29;100.00
33859;BME280;20156;47.486;12.074;2023-02-18T15:16:19;95311.97;;;14.08;100.00
33859;BME280;20156;47.486;12.074;2023-02-18T15:19:01;95322.25;;;13.91;100.00
33859;BME280;20156;47.486;12.074;2023-02-18T15:21:36;95328.75;;;13.70;100.00
33859;BME280;20156;47.486;12.074;2023-02-18T15:26:45;95341.59;;;13.72;100.00